Time;durP1;ratioP1;P1;durP2;ratioP2;P2;SDS_P1;SDS_P2;PMS_P1;PMS_P2;Temp;Humidity;BMP_temperature;BMP_pressure;BME280_temperature;BME280_humidity;BME280_pressure;Samples;Min_cycle;Max_cycle;Signal;HPM_P1;HPM_P2
2023/03/16 00:11:01;;;;;;;28.63;12.97;;;1.50;90.40;;;;;;5564257;25;20519;-81
2023/03/16 00:56:47;;;;;;;19.57;10.43;;;1.30;90.80;;;;;;5555106;24;20231;-81
2023/03/16 01:21:58;;;;;;;22.97;11.40;;;1.00;90.20;;;;;;5595893;24;20838;-82
2023/03/16 01:47:06;;;;;;;19.53;10.77;;;0.80;91.10;;;;;;5563532;25;20586;-82
2023/03/16 02:08:05;;;;;;;22.67;11.60;;;0.00;96.20;;;;;;5653629;24;20187;-79
2023/03/16 02:32:50;;;;;;;19.47;11.70;;;-1.00;99.90;;;;;;5536435;25;20546;-80
2023/03/16 02:58:42;;;;;;;19.67;10.57;;;-1.20;99.90;;;;;;5662133;24;20486;-80
2023/03/16 03:34:05;;;;;;;19.70;11.83;;;-1.30;99.90;;;;;;5670311;24;20235;-82
2023/03/16 04:04:36;;;;;;;26.73;14.00;;;-1.10;99.90;;;;;;5614572;24;20475;-81
2023/03/16 05:00:33;;;;;;;30.33;19.10;;;-1.00;99.90;;;;;;5632016;24;20165;-82
2023/03/16 05:35:52;;;;;;;28.53;17.23;;;-0.70;99.90;;;;;;5814826;24;20220;-83
2023/03/16 06:00:45;;;;;;;32.30;16.83;;;0.10;99.90;;;;;;5809732;24;20359;-81
2023/03/16 06:21:41;;;;;;;22.03;13.70;;;0.80;99.90;;;;;;5861945;24;20236;-85
2023/03/16 06:47:04;;;;;;;21.63;13.20;;;1.90;99.90;;;;;;5796160;24;20196;-84
2023/03/16 07:12:02;;;;;;;21.40;11.83;;;2.60;93.80;;;;;;5623003;25;20509;-81
2023/03/16 08:08:14;;;;;;;16.33;9.93;;;4.10;89.80;;;;;;5735258;24;20631;-81
2023/03/16 08:43:45;;;;;;;13.53;10.57;;;4.10;87.60;;;;;;5768123;24;20684;-83
2023/03/16 09:44:33;;;;;;;14.13;10.13;;;5.20;84.20;;;;;;5535336;25;20363;-82
2023/03/16 10:40:25;;;;;;;8.33;4.00;;;6.70;75.10;;;;;;5772004;23;20606;-81
2023/03/16 11:20:59;;;;;;;7.50;5.77;;;6.80;70.70;;;;;;5865628;23;20326;-80
2023/03/16 11:56:34;;;;;;;8.30;4.20;;;7.30;69.90;;;;;;5879430;23;20663;-82
2023/03/16 12:00:54;;;;;;;8.23;4.40;;;7.10;72.80;;;;;;5754748;24;20372;-82
2023/03/16 12:26:53;;;;;;;16.53;5.30;;;6.70;77.20;;;;;;5684828;24;20212;-81
2023/03/16 12:57:18;;;;;;;9.70;4.50;;;7.50;74.30;;;;;;5756626;24;20237;-83
2023/03/16 13:32:19;;;;;;;9.63;4.33;;;7.50;74.30;;;;;;5787006;24;20508;-87
2023/03/16 14:02:40;;;;;;;6.73;4.10;;;7.50;57.50;;;;;;5683964;24;20508;-81
2023/03/16 14:23:31;;;;;;;8.27;4.70;;;7.20;61.90;;;;;;5701465;24;20190;-80
2023/03/16 15:19:13;;;;;;;8.07;4.07;;;6.70;70.50;;;;;;5609657;24;20338;-82
2023/03/16 15:55:03;;;;;;;5.80;3.60;;;6.20;73.10;;;;;;5834704;24;20720;-83
2023/03/16 15:59:22;;;;;;;8.03;4.07;;;6.00;74.20;;;;;;5797251;24;20473;-84
2023/03/16 16:24:46;;;;;;;4.13;3.37;;;5.40;76.80;;;;;;5611291;24;20680;-82
2023/03/16 17:26:20;;;;;;;7.87;5.73;;;4.30;82.60;;;;;;5870807;24;20177;-83
2023/03/16 17:51:32;;;;;;;8.60;5.57;;;4.00;83.80;;;;;;5958369;23;20173;-81
2023/03/16 19:02:39;;;;;;;8.93;6.47;;;3.20;90.70;;;;;;5923502;23;20350;-83
2023/03/16 19:38:09;;;;;;;11.73;7.30;;;2.10;92.70;;;;;;5990781;23;20204;-83
2023/03/16 20:03:36;;;;;;;36.03;19.87;;;2.30;97.20;;;;;;5811879;24;20478;-84
2023/03/16 21:29:44;;;;;;;21.70;13.00;;;2.60;98.40;;;;;;5655757;24;20321;-82
2023/03/16 21:55:09;;;;;;;21.63;14.80;;;2.00;99.90;;;;;;5614469;25;20290;-83
2023/03/16 22:25:36;;;;;;;29.70;15.77;;;0.50;99.90;;;;;;5691220;24;20202;-83
2023/03/16 22:55:45;;;;;;;31.73;17.57;;;-0.40;99.90;;;;;;5621525;24;20590;-81
2023/03/16 23:31:35;;;;;;;35.43;18.67;;;-1.20;99.90;;;;;;5516484;25;20224;-83
